KNLC/NLC METAR and TAF weather

Enter ICAO airport designator
Station Type Date Time Source
KNLC METAR 2019/10/23 06:56 UTC NOAA

KNLC 230656Z 26006KT 10SM CLR 13/02 A3007 RMK AO2 SLP181 RH/45 T01330017


Station Type Date Time Source
KNLC Decoded METAR 2019/10/23 06:56 UTC NOAA

LEMOORE NAVAL AIR STATION, CA, United States (KNLC) 36-20N 119-57W 72M
Oct 23, 2019 - 02:56 AM EDT / 2019.10.23 0656 UTC
Wind: from the W (260 degrees) at 7 MPH (6 KT):0
Visibility: 10 mile(s):0
Sky conditions: clear
Temperature: 55.9 F (13.3 C)
Dew Point: 35.1 F (1.7 C)
Relative Humidity: 45%
Pressure (altimeter): 30.07 in. Hg (1018 hPa)
ob: KNLC 230656Z 26006KT 10SM CLR 13/02 A3007 RMK AO2 SLP181 RH/45 T01330017
cycle: 7

Station Type Date Time Source
KNLC TAF 2019/10/23 07:57 UTC NOAA

TAF KNLC 2307/2407 VRB06KT 9999 SKC QNH3000INS
FM231800 35006KT 9999 SKC QNH2981INS AUTOMATED SENSOR METWATCH 2308 TIL 2315 T09/2313Z T30/2323Z FS30012

Example: see airport list